createdAt,value
2023-04-05T00:01:12.423Z,100610.09
2023-04-05T00:03:40.991Z,100609.66
2023-04-05T00:06:08.755Z,100620.91
2023-04-05T00:08:37.263Z,100621.75
2023-04-05T00:11:04.744Z,100622.16
2023-04-05T00:13:32.206Z,100612.91
2023-04-05T00:16:01.318Z,100603.31
2023-04-05T00:18:34.453Z,100593.75
2023-04-05T00:21:02.019Z,100597.16
2023-04-05T00:23:29.917Z,100589.28
2023-04-05T00:25:57.337Z,100580.56
2023-04-05T00:28:24.845Z,100575.91
2023-04-05T00:30:52.851Z,100571.44
2023-04-05T00:33:20.642Z,100562.41
2023-04-05T00:35:49.318Z,100554.59
2023-04-05T00:38:17.016Z,100557.69
2023-04-05T00:40:44.829Z,100569.25
2023-04-05T00:43:12.907Z,100569.41
2023-04-05T00:45:40.373Z,100566.41
2023-04-05T00:48:08.969Z,100558.06
2023-04-05T00:50:37.018Z,100567.84
2023-04-05T00:53:05.529Z,100559.72
2023-04-05T00:55:34.707Z,100553.22
2023-04-05T00:58:02.274Z,100560.69
2023-04-05T01:00:30.476Z,100568.00
2023-04-05T01:03:03.701Z,100559.09
2023-04-05T01:05:44.270Z,100552.25
2023-04-05T01:08:21.570Z,100557.97
2023-04-05T01:10:56.382Z,100546.00
2023-04-05T01:13:25.918Z,100553.88
2023-04-05T01:15:53.924Z,100544.09
2023-04-05T01:18:22.133Z,100541.41
2023-04-05T01:20:59.569Z,100544.78
2023-04-05T01:24:00.148Z,100543.84
2023-04-05T01:26:53.738Z,100528.94
2023-04-05T01:29:39.666Z,100525.41
2023-04-05T01:32:10.205Z,100519.00
2023-04-05T01:34:51.799Z,100536.25
2023-04-05T01:37:23.960Z,100527.69
2023-04-05T01:39:51.538Z,100522.50
2023-04-05T01:42:27.014Z,100523.47
2023-04-05T01:44:56.459Z,100520.25
2023-04-05T01:47:24.199Z,100523.72
2023-04-05T01:49:51.541Z,100523.09
2023-04-05T01:52:19.037Z,100526.03
2023-04-05T01:54:46.450Z,100515.56
2023-04-05T01:57:13.840Z,100518.91
2023-04-05T01:59:41.257Z,100501.66
2023-04-05T02:02:09.068Z,100501.91
2023-04-05T02:04:37.188Z,100496.94
2023-04-05T02:07:05.541Z,100489.44
2023-04-05T02:09:33.339Z,100492.13
2023-04-05T02:12:01.694Z,100485.69
2023-04-05T02:14:36.077Z,100474.91
2023-04-05T02:17:04.205Z,100473.91
2023-04-05T02:19:37.300Z,100467.06
2023-04-05T02:22:05.019Z,100465.53
2023-04-05T02:24:32.391Z,100462.25
2023-04-05T02:26:59.801Z,100466.66
2023-04-05T02:29:28.137Z,100465.38
2023-04-05T02:31:55.988Z,100468.72
2023-04-05T02:34:23.472Z,100467.84
2023-04-05T02:36:51.637Z,100458.28
2023-04-05T02:39:19.503Z,100438.31
2023-04-05T02:41:47.827Z,100435.00
2023-04-05T02:44:15.560Z,100432.94
2023-04-05T02:46:43.025Z,100417.03
2023-04-05T02:49:10.586Z,100409.03
2023-04-05T02:51:38.245Z,100405.94
2023-04-05T02:54:05.940Z,100392.22
2023-04-05T02:56:33.421Z,100398.44
2023-04-05T02:59:01.443Z,100399.28
2023-04-05T03:01:28.977Z,100381.66
2023-04-05T03:04:04.196Z,100381.06
2023-04-05T03:06:31.736Z,100372.31
2023-04-05T03:08:59.162Z,100354.78
2023-04-05T03:11:26.596Z,100339.53
2023-04-05T03:13:54.890Z,100324.41
2023-04-05T03:16:22.772Z,100317.97
2023-04-05T03:18:50.517Z,100330.81
2023-04-05T03:21:24.511Z,100325.81
2023-04-05T03:23:52.083Z,100327.69
2023-04-05T03:26:19.785Z,100322.94
2023-04-05T03:28:47.533Z,100325.03
2023-04-05T03:31:14.936Z,100322.50
2023-04-05T03:33:42.709Z,100324.16
2023-04-05T03:36:10.335Z,100317.34
2023-04-05T03:38:39.760Z,100322.56
2023-04-05T03:41:12.474Z,100336.25
2023-04-05T03:43:40.871Z,100334.97
2023-04-05T03:46:08.273Z,100330.00
2023-04-05T03:48:38.830Z,100321.06
2023-04-05T03:51:08.157Z,100326.25
2023-04-05T03:53:35.703Z,100333.75
2023-04-05T03:56:03.168Z,100324.19
2023-04-05T03:58:30.787Z,100338.91
2023-04-05T04:00:58.413Z,100341.22
2023-04-05T04:03:26.319Z,100355.94
2023-04-05T04:05:54.160Z,100347.47
2023-04-05T04:08:22.020Z,100363.41
2023-04-05T04:10:50.125Z,100360.78
2023-04-05T04:13:19.829Z,100345.78
2023-04-05T04:15:47.903Z,100339.78
2023-04-05T04:18:17.498Z,100344.34
2023-04-05T04:20:45.702Z,100330.44
2023-04-05T04:23:14.621Z,100328.38
2023-04-05T04:25:46.194Z,100320.91
2023-04-05T04:28:19.649Z,100327.13
2023-04-05T04:30:47.014Z,100337.34
2023-04-05T04:33:14.707Z,100335.47
2023-04-05T04:35:42.689Z,100333.38
2023-04-05T04:38:21.835Z,100338.16
2023-04-05T04:40:53.927Z,100330.88
2023-04-05T04:43:27.368Z,100329.88
2023-04-05T04:45:55.742Z,100336.72
2023-04-05T04:48:23.381Z,100333.81
2023-04-05T04:50:54.874Z,100321.34
2023-04-05T04:53:24.179Z,100323.84
2023-04-05T04:55:59.799Z,100318.44
2023-04-05T04:58:27.708Z,100323.41
2023-04-05T05:00:57.277Z,100337.09
2023-04-05T05:03:26.380Z,100323.41
2023-04-05T05:05:53.971Z,100328.59
2023-04-05T05:08:22.043Z,100324.03
2023-04-05T05:10:53.625Z,100335.63
2023-04-05T05:13:22.885Z,100330.88
2023-04-05T05:15:50.280Z,100341.28
2023-04-05T05:18:17.975Z,100343.34
2023-04-05T05:20:45.359Z,100338.09
2023-04-05T05:23:12.782Z,100335.56
2023-04-05T05:25:40.352Z,100332.88
2023-04-05T05:28:07.883Z,100341.97
2023-04-05T05:30:38.884Z,100336.34
2023-04-05T05:33:08.683Z,100340.47
2023-04-05T05:35:38.217Z,100332.31
2023-04-05T05:38:08.372Z,100342.84
2023-04-05T05:40:37.391Z,100348.47
2023-04-05T05:43:05.109Z,100339.69
2023-04-05T05:45:32.925Z,100341.41
2023-04-05T05:48:01.107Z,100342.97
2023-04-05T05:50:33.085Z,100336.41
2023-04-05T05:53:01.814Z,100330.56
2023-04-05T05:55:29.582Z,100335.72
2023-04-05T05:57:57.393Z,100318.44
2023-04-05T06:00:24.910Z,100319.13
2023-04-05T06:03:12.445Z,100322.50
2023-04-05T06:05:39.866Z,100308.03
2023-04-05T06:08:08.366Z,100305.59
2023-04-05T06:10:37.956Z,100291.25
2023-04-05T06:13:05.793Z,100282.28
2023-04-05T06:15:33.673Z,100286.81
2023-04-05T06:18:01.841Z,100280.06
2023-04-05T06:20:29.520Z,100276.47
2023-04-05T06:23:04.117Z,100266.56
2023-04-05T06:25:32.062Z,100277.16
2023-04-05T06:27:59.535Z,100270.84
2023-04-05T06:30:28.465Z,100255.34
2023-04-05T06:32:57.077Z,100256.31
2023-04-05T06:35:25.172Z,100260.50
2023-04-05T06:52:25.068Z,100255.69
2023-04-05T06:54:53.580Z,100251.50
2023-04-05T06:57:22.090Z,100254.50
2023-04-05T06:59:52.764Z,100249.38
2023-04-05T07:02:22.928Z,100252.50
2023-04-05T07:04:51.024Z,100241.66
2023-04-05T09:55:44.493Z,100338.75
2023-04-05T09:58:19.032Z,100334.97
2023-04-05T10:00:59.993Z,100326.91
2023-04-05T10:03:32.887Z,100316.00
2023-04-05T10:06:01.253Z,100315.69
2023-04-05T10:08:33.385Z,100324.78
2023-04-05T10:11:05.082Z,100325.19
2023-04-05T10:13:34.714Z,100323.81
2023-04-05T10:16:08.893Z,100306.03
2023-04-05T10:18:46.592Z,100310.84
2023-04-05T10:21:23.926Z,100310.16
2023-04-05T10:24:14.005Z,100302.34
2023-04-05T10:26:55.130Z,100309.34
2023-04-05T10:29:33.571Z,100295.63
2023-04-05T10:32:19.265Z,100297.78
2023-04-05T10:35:04.622Z,100294.81
2023-04-05T10:37:38.669Z,100296.09
2023-04-05T10:40:11.874Z,100287.59
2023-04-05T10:42:46.935Z,100293.97
2023-04-05T10:45:19.706Z,100287.31
2023-04-05T10:47:58.285Z,100278.16
2023-04-05T10:50:25.966Z,100276.56
2023-04-05T10:52:53.917Z,100279.41
2023-04-05T10:55:22.092Z,100279.88
2023-04-05T10:57:51.122Z,100274.03
2023-04-05T11:00:19.547Z,100269.69
2023-04-05T11:02:56.072Z,100270.88
2023-04-05T11:05:36.010Z,100254.72
2023-04-05T11:08:08.423Z,100257.53
2023-04-05T11:10:39.287Z,100252.44
2023-04-05T11:13:09.145Z,100258.59
2023-04-05T11:15:37.441Z,100256.69
2023-04-05T11:18:22.518Z,100266.03
2023-04-05T11:20:55.934Z,100261.81
2023-04-05T11:23:25.697Z,100269.56
2023-04-05T11:25:57.741Z,100271.88
2023-04-05T11:28:42.370Z,100273.63
2023-04-05T11:31:18.613Z,100281.06
2023-04-05T11:34:10.195Z,100280.16
2023-04-05T11:36:42.233Z,100283.47
2023-04-05T11:39:18.752Z,100287.59
2023-04-05T11:42:13.183Z,100294.50
2023-04-05T11:44:48.101Z,100285.19
2023-04-05T11:47:21.995Z,100287.78
2023-04-05T11:49:51.194Z,100275.78
2023-04-05T11:52:21.392Z,100278.44
2023-04-05T11:54:50.168Z,100268.59
2023-04-05T11:57:22.509Z,100282.38
2023-04-05T11:59:54.293Z,100278.56
2023-04-05T12:02:22.285Z,100282.41
2023-04-05T12:04:57.881Z,100276.97
2023-04-05T12:07:32.115Z,100273.91
2023-04-05T12:10:07.163Z,100280.72
2023-04-05T12:12:40.677Z,100279.50
2023-04-05T12:15:11.871Z,100286.31
2023-04-05T12:17:44.220Z,100289.47
2023-04-05T12:20:14.512Z,100286.75
2023-04-05T12:22:44.847Z,100275.44
2023-04-05T12:25:13.616Z,100278.34
2023-04-05T12:27:42.250Z,100274.53
2023-04-05T12:30:18.873Z,100277.84
2023-04-05T12:32:54.482Z,100286.47
2023-04-05T12:35:24.760Z,100287.69
2023-04-05T12:37:52.724Z,100283.44
2023-04-05T12:40:22.281Z,100287.25
2023-04-05T12:42:50.778Z,100298.28
2023-04-05T12:45:18.978Z,100295.72
2023-04-05T12:47:52.753Z,100303.34
2023-04-05T12:50:27.067Z,100300.31
2023-04-05T12:52:58.387Z,100298.69
2023-04-05T12:55:27.825Z,100303.34
2023-04-05T12:57:59.721Z,100307.81
2023-04-05T13:00:29.841Z,100305.00
2023-04-05T13:02:59.813Z,100312.41
2023-04-05T13:05:29.943Z,100303.34
2023-04-05T13:07:59.444Z,100294.34
2023-04-05T13:10:27.657Z,100296.09
2023-04-05T13:12:56.055Z,100300.41
2023-04-05T13:15:23.820Z,100289.78
2023-04-05T13:17:53.479Z,100293.06
2023-04-05T13:20:22.634Z,100294.81
2023-04-05T13:22:51.253Z,100289.75
2023-04-05T13:25:19.147Z,100285.53
2023-04-05T13:27:49.025Z,100282.28
2023-04-05T13:30:17.368Z,100278.97
2023-04-05T13:32:50.820Z,100276.53
2023-04-05T13:35:18.465Z,100270.53
2023-04-05T13:37:46.100Z,100277.03
2023-04-05T13:40:13.732Z,100275.09
2023-04-05T13:42:41.569Z,100271.31
2023-04-05T13:45:09.837Z,100275.69
2023-04-05T13:47:38.014Z,100271.06
2023-04-05T13:50:06.367Z,100270.66
2023-04-05T13:52:34.429Z,100273.50
2023-04-05T13:55:03.960Z,100274.69
2023-04-05T13:57:32.343Z,100281.50
2023-04-05T14:00:00.045Z,100277.19
2023-04-05T14:02:45.429Z,100274.41
2023-04-05T14:05:13.317Z,100282.25
2023-04-05T14:07:41.189Z,100276.97
2023-04-05T14:10:10.229Z,100276.97
2023-04-05T14:12:39.465Z,100270.97
2023-04-05T14:15:07.485Z,100273.97
2023-04-05T14:17:36.861Z,100281.97
2023-04-05T14:20:04.931Z,100292.16
2023-04-05T14:22:32.922Z,100289.53
2023-04-05T14:25:00.576Z,100290.28
2023-04-05T14:27:29.056Z,100290.31
2023-04-05T14:29:57.331Z,100295.78
2023-04-05T14:32:26.125Z,100296.66
2023-04-05T14:34:53.922Z,100300.34
2023-04-05T14:37:21.465Z,100300.44
2023-04-05T14:39:49.150Z,100302.97
2023-04-05T14:42:16.854Z,100298.75
2023-04-05T14:44:44.992Z,100302.06
2023-04-05T14:47:12.621Z,100304.84
2023-04-05T14:49:40.234Z,100310.44
2023-04-05T14:52:07.928Z,100310.91
2023-04-05T14:54:35.815Z,100308.00
2023-04-05T14:57:05.489Z,100313.00
2023-04-05T14:59:33.984Z,100304.69
2023-04-05T15:02:01.894Z,100312.59
2023-04-05T15:04:31.173Z,100297.22
2023-04-05T15:06:58.628Z,100295.19
2023-04-05T15:09:25.994Z,100296.22
2023-04-05T15:11:55.487Z,100300.16
2023-04-05T15:14:31.663Z,100298.50
2023-04-05T15:16:59.690Z,100295.59
2023-04-05T15:19:27.740Z,100287.31
2023-04-05T15:21:55.585Z,100283.97
2023-04-05T15:24:23.067Z,100289.34
2023-04-05T15:26:50.522Z,100284.81
2023-04-05T15:29:19.945Z,100300.78
2023-04-05T15:31:48.153Z,100290.22
2023-04-05T15:34:15.559Z,100287.69
2023-04-05T15:36:43.052Z,100295.78
2023-04-05T15:39:10.414Z,100301.59
2023-04-05T15:41:38.224Z,100306.19
2023-04-05T15:44:09.178Z,100306.78
2023-04-05T15:46:37.022Z,100306.81
2023-04-05T15:49:04.811Z,100315.53
2023-04-05T15:51:36.677Z,100315.31
2023-04-05T15:54:04.205Z,100308.88
2023-04-05T15:56:32.250Z,100308.84
2023-04-05T15:59:00.226Z,100320.84
2023-04-05T16:01:27.989Z,100321.69
2023-04-05T16:03:56.429Z,100320.47
2023-04-05T16:06:28.344Z,100320.03
2023-04-05T16:08:56.033Z,100322.13
2023-04-05T16:11:23.842Z,100330.00
2023-04-05T16:13:57.271Z,100322.75
2023-04-05T16:16:35.295Z,100313.38
2023-04-05T16:19:10.573Z,100320.47
2023-04-05T16:21:39.641Z,100321.28
2023-04-05T16:24:07.166Z,100316.72
2023-04-05T16:26:34.856Z,100311.94
2023-04-05T16:29:02.894Z,100314.00
2023-04-05T16:31:30.828Z,100318.16
2023-04-05T16:33:58.435Z,100316.00
2023-04-05T16:36:26.051Z,100318.78
2023-04-05T16:38:53.555Z,100326.59
2023-04-05T16:41:21.049Z,100325.81
2023-04-05T16:43:49.151Z,100314.63
2023-04-05T16:46:16.642Z,100320.41
2023-04-05T16:48:44.205Z,100315.59
2023-04-05T16:51:13.010Z,100322.44
2023-04-05T16:53:40.481Z,100318.31
2023-04-05T16:56:08.006Z,100327.47
2023-04-05T16:58:35.580Z,100334.56
2023-04-05T17:01:03.183Z,100334.75
2023-04-05T17:03:31.377Z,100344.50
2023-04-05T17:05:59.432Z,100352.81
2023-04-05T17:08:29.198Z,100358.75
2023-04-05T17:10:57.946Z,100349.47
2023-04-05T17:13:25.558Z,100357.41
2023-04-05T17:15:53.644Z,100352.31
2023-04-05T17:18:21.213Z,100355.03
2023-04-05T17:20:48.669Z,100355.81
2023-04-05T17:23:17.101Z,100357.78
2023-04-05T17:25:44.510Z,100352.97
2023-04-05T17:28:13.178Z,100358.22
2023-04-05T17:30:40.623Z,100365.66
2023-04-05T17:33:09.967Z,100355.28
2023-04-05T17:35:38.180Z,100375.63
2023-04-05T17:38:06.290Z,100385.00
2023-04-05T17:40:33.992Z,100372.72
2023-04-05T17:43:01.455Z,100366.69
2023-04-05T17:45:29.111Z,100363.84
2023-04-05T17:47:58.086Z,100361.56
2023-04-05T17:50:27.514Z,100363.81
2023-04-05T17:52:54.934Z,100373.97
2023-04-05T17:55:22.559Z,100369.88
2023-04-05T17:57:50.077Z,100374.66
2023-04-05T18:00:17.827Z,100385.63
2023-04-05T18:02:48.983Z,100387.09
2023-04-05T18:05:19.446Z,100393.16
2023-04-05T18:07:47.063Z,100391.13
2023-04-05T18:10:14.618Z,100386.00
2023-04-05T18:12:42.120Z,100385.59
2023-04-05T18:15:09.983Z,100385.59
2023-04-05T18:17:40.714Z,100389.13
2023-04-05T18:20:08.853Z,100386.03
2023-04-05T18:22:38.104Z,100382.28
2023-04-05T18:25:08.684Z,100378.53
2023-04-05T18:27:36.179Z,100375.25
2023-04-05T18:30:06.027Z,100374.25
2023-04-05T18:32:34.478Z,100368.84
2023-04-05T18:35:01.919Z,100371.94
2023-04-05T18:37:30.299Z,100372.38
2023-04-05T18:39:57.744Z,100368.66
2023-04-05T18:42:25.566Z,100363.03
2023-04-05T18:44:53.715Z,100364.09
2023-04-05T18:47:21.696Z,100365.78
2023-04-05T18:49:49.125Z,100360.13
2023-04-05T18:52:22.607Z,100361.59
2023-04-05T18:54:53.578Z,100368.47
2023-04-05T18:57:21.029Z,100354.94
2023-04-05T18:59:48.656Z,100360.38
2023-04-05T19:02:16.225Z,100367.00
2023-04-05T19:04:44.121Z,100359.97
2023-04-05T19:07:11.543Z,100349.75
2023-04-05T19:09:39.126Z,100346.47
2023-04-05T19:12:06.855Z,100347.47
2023-04-05T19:14:44.779Z,100344.13
2023-04-05T19:17:13.090Z,100353.72
2023-04-05T19:19:41.067Z,100347.47
2023-04-05T19:22:11.252Z,100342.88
2023-04-05T19:24:40.923Z,100341.44
2023-04-05T19:27:08.404Z,100341.25
2023-04-05T19:29:37.417Z,100341.25
2023-04-05T19:32:05.074Z,100344.56
2023-04-05T19:34:32.924Z,100347.69
2023-04-05T19:37:00.992Z,100343.31
2023-04-05T19:39:29.193Z,100349.34
2023-04-05T19:41:57.845Z,100352.84
2023-04-05T19:44:52.016Z,100347.47
2023-04-05T19:47:23.601Z,100347.44
2023-04-05T19:49:53.767Z,100354.13
2023-04-05T19:52:46.861Z,100359.94
2023-04-05T19:55:33.944Z,100354.94
2023-04-05T19:58:05.916Z,100362.81
2023-04-05T20:00:52.129Z,100358.72
2023-04-05T20:03:41.077Z,100361.78
2023-04-05T20:06:09.744Z,100356.97
2023-04-05T20:08:41.667Z,100368.81
2023-04-05T20:11:15.567Z,100365.69
2023-04-05T20:13:51.874Z,100379.81
2023-04-05T20:16:29.918Z,100376.47
2023-04-05T20:19:09.709Z,100380.69
2023-04-05T20:21:39.136Z,100380.47
2023-04-05T20:24:14.943Z,100384.03
2023-04-05T20:26:46.102Z,100383.00
2023-04-05T20:29:17.121Z,100379.84
2023-04-05T20:31:44.924Z,100378.59
2023-04-05T20:34:21.347Z,100379.22
2023-04-05T20:36:52.335Z,100376.91
2023-04-05T20:39:23.654Z,100379.38
2023-04-05T20:41:51.527Z,100376.03
2023-04-05T20:44:25.038Z,100374.41
2023-04-05T20:46:55.654Z,100376.03
2023-04-05T20:49:24.304Z,100378.09
2023-04-05T20:51:51.945Z,100377.03
2023-04-05T20:54:20.424Z,100375.50
2023-04-05T20:56:48.505Z,100384.94
2023-04-05T20:59:17.158Z,100383.06
2023-04-05T21:01:47.390Z,100384.38
2023-04-05T21:04:16.858Z,100380.38
2023-04-05T21:06:44.457Z,100386.97
2023-04-05T21:09:11.948Z,100381.56
2023-04-05T21:11:42.026Z,100386.38
2023-04-05T21:14:09.545Z,100385.25
2023-04-05T21:16:36.936Z,100381.31
2023-04-05T21:19:04.341Z,100379.44
2023-04-05T21:21:31.828Z,100382.63
2023-04-05T21:23:59.273Z,100376.25
2023-04-05T21:26:26.719Z,100389.34
2023-04-05T21:28:54.202Z,100376.47
2023-04-05T21:31:22.247Z,100380.81
2023-04-05T21:33:49.672Z,100379.84
2023-04-05T21:36:17.089Z,100388.31
2023-04-05T21:38:45.859Z,100389.34
2023-04-05T21:41:13.330Z,100398.13
2023-04-05T21:43:42.871Z,100401.66
2023-04-05T21:46:11.439Z,100407.78
2023-04-05T21:48:39.000Z,100414.91
2023-04-05T21:51:06.454Z,100413.03
2023-04-05T21:53:34.490Z,100414.50
2023-04-05T21:56:05.660Z,100411.59
2023-04-05T21:58:33.580Z,100420.28
2023-04-05T22:01:01.587Z,100408.59
2023-04-05T22:03:30.004Z,100416.69
2023-04-05T22:05:57.865Z,100423.69
2023-04-05T22:08:26.827Z,100426.34
2023-04-05T22:10:54.915Z,100416.94
2023-04-05T22:13:24.234Z,100413.94
2023-04-05T22:15:51.787Z,100408.97
2023-04-05T22:18:19.207Z,100414.13
2023-04-05T22:20:47.050Z,100408.88
2023-04-05T22:23:14.435Z,100413.31
2023-04-05T22:25:42.327Z,100416.06
2023-04-05T22:28:11.183Z,100420.31
2023-04-05T22:30:43.964Z,100423.72
2023-04-05T22:33:13.821Z,100427.03
2023-04-05T22:35:42.123Z,100430.13
2023-04-05T22:38:13.597Z,100437.38
2023-04-05T22:40:41.563Z,100443.03
2023-04-05T22:43:09.730Z,100448.13
2023-04-05T22:45:38.887Z,100453.44
2023-04-05T22:48:07.162Z,100452.38
2023-04-05T22:50:35.234Z,100452.09
2023-04-05T22:53:02.823Z,100453.88
2023-04-05T22:55:31.580Z,100459.22
2023-04-05T22:57:58.967Z,100459.88
2023-04-05T23:00:26.768Z,100460.06
2023-04-05T23:02:54.534Z,100465.28
2023-04-05T23:05:21.953Z,100465.94
2023-04-05T23:07:49.355Z,100464.94
2023-04-05T23:10:18.043Z,100465.63
2023-04-05T23:12:48.439Z,100466.56
2023-04-05T23:15:16.193Z,100470.84
2023-04-05T23:17:43.682Z,100467.31
2023-04-05T23:20:11.688Z,100468.50
2023-04-05T23:22:39.137Z,100468.66
2023-04-05T23:25:07.290Z,100475.56
2023-04-05T23:27:34.867Z,100481.22
2023-04-05T23:30:02.901Z,100469.91
2023-04-05T23:32:31.062Z,100470.88
2023-04-05T23:34:58.539Z,100467.16
2023-04-05T23:37:26.143Z,100467.94
2023-04-05T23:39:53.544Z,100471.41
2023-04-05T23:42:26.112Z,100471.25
2023-04-05T23:44:53.454Z,100470.69
2023-04-05T23:47:21.019Z,100474.44
2023-04-05T23:49:50.812Z,100476.13
2023-04-05T23:52:18.157Z,100474.72
2023-04-05T23:54:46.513Z,100479.28
2023-04-05T23:57:14.723Z,100481.31
2023-04-05T23:59:42.411Z,100481.13
